createdAt,value
2017-06-28T00:00:00.675Z,96326.30
2017-06-28T00:02:28.150Z,96329.65
2017-06-28T00:04:55.602Z,96315.02
2017-06-28T00:07:23.040Z,96312.52
2017-06-28T00:09:50.479Z,96314.36
2017-06-28T00:12:17.919Z,96319.85
2017-06-28T00:14:45.377Z,96320.48
2017-06-28T00:17:12.828Z,96321.14
2017-06-28T00:19:40.252Z,96323.09
2017-06-28T00:22:07.663Z,96316.58
2017-06-28T00:24:35.116Z,96312.23
2017-06-28T00:27:02.527Z,96306.19
2017-06-28T00:29:29.931Z,96295.22
2017-06-28T00:31:57.368Z,96291.52
2017-06-28T00:34:24.788Z,96285.66
2017-06-28T00:36:52.192Z,96277.89
2017-06-28T00:39:20.357Z,96273.78
2017-06-28T00:41:47.770Z,96269.47
2017-06-28T00:44:15.409Z,96273.81
2017-06-28T00:46:42.865Z,96271.81
2017-06-28T00:49:10.276Z,96272.25
2017-06-28T00:51:38.315Z,96257.92
2017-06-28T00:54:05.738Z,96257.77
2017-06-28T00:56:33.173Z,96259.89
2017-06-28T00:59:01.108Z,96261.47
2017-06-28T01:01:28.531Z,96253.83
2017-06-28T01:03:56.063Z,96247.19
2017-06-28T01:06:23.500Z,96254.80
2017-06-28T01:08:50.928Z,96250.51
2017-06-28T01:11:18.327Z,96256.76
2017-06-28T01:13:45.799Z,96257.78
2017-06-28T01:16:13.211Z,96284.36
2017-06-28T01:18:40.690Z,96286.82
2017-06-28T01:21:08.104Z,96278.19
2017-06-28T01:23:35.532Z,96272.33
2017-06-28T01:26:02.977Z,96286.16
2017-06-28T01:28:30.407Z,96293.48
2017-06-28T01:30:57.888Z,96301.95
2017-06-28T01:33:25.298Z,96300.81
2017-06-28T01:35:53.611Z,96304.73
2017-06-28T01:38:21.032Z,96301.58
2017-06-28T01:40:48.453Z,96305.30
2017-06-28T01:43:15.889Z,96304.52
2017-06-28T01:45:43.326Z,96304.10
2017-06-28T01:48:10.779Z,96299.45
2017-06-28T01:50:38.212Z,96295.95
2017-06-28T01:53:05.654Z,96284.45
2017-06-28T01:55:33.073Z,96269.22
2017-06-28T01:58:00.499Z,96270.45
2017-06-28T02:00:27.939Z,96261.70
2017-06-28T02:02:55.358Z,96255.02
2017-06-28T02:05:22.797Z,96249.78
2017-06-28T02:07:50.175Z,96248.02
2017-06-28T02:10:17.618Z,96250.73
2017-06-28T02:12:45.017Z,96254.87
2017-06-28T02:15:12.468Z,96264.80
2017-06-28T02:17:39.879Z,96264.78
2017-06-28T02:20:07.299Z,96278.50
2017-06-28T02:22:34.880Z,96291.00
2017-06-28T02:25:02.292Z,96288.85
2017-06-28T02:27:29.734Z,96281.03
2017-06-28T02:29:57.155Z,96288.46
2017-06-28T02:32:24.608Z,96299.80
2017-06-28T02:34:52.044Z,96316.59
2017-06-28T02:37:19.451Z,96330.25
2017-06-28T02:39:46.902Z,96363.78
2017-06-28T02:42:14.340Z,96384.12
2017-06-28T02:44:41.748Z,96381.61
2017-06-28T02:47:09.193Z,96367.94
2017-06-28T02:49:36.603Z,96351.84
2017-06-28T02:52:05.009Z,96350.85
2017-06-28T02:54:32.413Z,96345.89
2017-06-28T02:56:59.826Z,96338.44
2017-06-28T02:59:27.260Z,96331.75
2017-06-28T03:01:54.667Z,96332.91
2017-06-28T03:04:22.127Z,96330.72
2017-06-28T03:06:49.567Z,96329.78
2017-06-28T03:09:17.039Z,96329.92
2017-06-28T03:11:44.443Z,96328.59
2017-06-28T03:14:11.864Z,96320.60
2017-06-28T03:16:39.290Z,96319.08
2017-06-28T03:19:06.703Z,96318.77
2017-06-28T03:21:34.135Z,96309.61
2017-06-28T03:24:01.577Z,96292.49
2017-06-28T03:26:29.035Z,96290.76
2017-06-28T03:28:56.443Z,96292.71
2017-06-28T03:31:23.876Z,96299.35
2017-06-28T03:33:51.368Z,96295.67
2017-06-28T03:36:18.772Z,96297.61
2017-06-28T03:38:46.208Z,96300.53
2017-06-28T03:41:13.654Z,96304.61
2017-06-28T03:43:41.087Z,96302.61
2017-06-28T03:46:08.529Z,96301.97
2017-06-28T03:48:36.001Z,96308.08
2017-06-28T03:51:03.431Z,96305.11
2017-06-28T03:53:30.950Z,96318.11
2017-06-28T03:55:58.408Z,96308.34
2017-06-28T03:58:25.868Z,96312.40
2017-06-28T04:00:53.350Z,96312.31
2017-06-28T04:03:20.764Z,96323.59
2017-06-28T04:05:48.173Z,96336.22
2017-06-28T04:08:15.735Z,96348.92
2017-06-28T04:10:43.176Z,96365.84
2017-06-28T04:13:10.587Z,96364.52
2017-06-28T04:15:38.032Z,96362.73
2017-06-28T04:18:05.481Z,96353.42
2017-06-28T04:20:32.912Z,96339.32
2017-06-28T04:23:00.388Z,96323.91
2017-06-28T04:25:27.823Z,96311.37
2017-06-28T04:27:55.245Z,96308.72
2017-06-28T04:30:23.380Z,96312.83
2017-06-28T04:32:50.805Z,96308.95
2017-06-28T04:35:18.217Z,96298.70
2017-06-28T04:37:45.677Z,96282.58
2017-06-28T04:40:13.077Z,96279.69
2017-06-28T04:42:40.488Z,96298.48
2017-06-28T04:45:07.932Z,96313.34
2017-06-28T04:47:35.344Z,96317.06
2017-06-28T04:50:02.755Z,96313.91
2017-06-28T04:52:30.268Z,96320.29
2017-06-28T04:54:57.688Z,96319.50
2017-06-28T04:57:25.157Z,96323.38
2017-06-28T04:59:52.617Z,96321.78
2017-06-28T05:02:20.031Z,96323.31
2017-06-28T05:04:47.468Z,96316.12
2017-06-28T05:07:14.913Z,96309.50
2017-06-28T05:09:42.328Z,96299.35
2017-06-28T05:12:09.771Z,96283.08
2017-06-28T05:14:37.189Z,96287.76
2017-06-28T05:17:04.610Z,96282.14
2017-06-28T05:19:32.053Z,96279.10
2017-06-28T05:21:59.472Z,96266.42
2017-06-28T05:24:26.877Z,96270.92
2017-06-28T05:26:54.320Z,96269.19
2017-06-28T05:29:21.744Z,96259.26
2017-06-28T05:31:49.167Z,96229.72
2017-06-28T05:34:16.614Z,96225.05
2017-06-28T05:36:44.056Z,96232.48
2017-06-28T05:39:11.471Z,96234.44
2017-06-28T05:41:38.904Z,96240.14
2017-06-28T05:44:06.435Z,96231.39
2017-06-28T05:46:33.847Z,96236.47
2017-06-28T05:49:01.297Z,96247.82
2017-06-28T05:51:28.714Z,96246.26
2017-06-28T05:53:56.186Z,96249.61
2017-06-28T05:56:23.670Z,96254.86
2017-06-28T05:58:51.167Z,96255.09
2017-06-28T06:01:18.634Z,96259.21
2017-06-28T06:03:46.104Z,96270.72
2017-06-28T06:06:13.516Z,96267.14
2017-06-28T06:08:40.987Z,96245.90
2017-06-28T06:11:08.423Z,96247.64
2017-06-28T06:13:35.866Z,96266.90
2017-06-28T06:16:03.272Z,96263.94
2017-06-28T06:18:30.759Z,96260.83
2017-06-28T06:20:58.177Z,96259.27
2017-06-28T06:23:25.575Z,96257.56
2017-06-28T06:25:53.040Z,96261.66
2017-06-28T06:28:20.443Z,96271.20
2017-06-28T06:30:47.981Z,96282.44
2017-06-28T06:33:15.558Z,96293.53
2017-06-28T06:35:42.965Z,96302.72
2017-06-28T06:38:10.382Z,96297.86
2017-06-28T06:40:37.837Z,96297.14
2017-06-28T06:43:05.235Z,96294.20
2017-06-28T06:45:32.680Z,96306.00
2017-06-28T06:48:00.115Z,96307.38
2017-06-28T06:50:28.548Z,96306.03
2017-06-28T06:52:55.983Z,96312.87
2017-06-28T06:55:23.419Z,96310.53
2017-06-28T06:57:50.827Z,96319.30
2017-06-28T07:00:18.260Z,96317.56
2017-06-28T07:02:45.679Z,96315.19
2017-06-28T07:05:13.142Z,96316.00
2017-06-28T07:07:40.555Z,96315.80
2017-06-28T07:10:07.967Z,96319.06
2017-06-28T07:12:35.432Z,96319.66
2017-06-28T07:15:02.865Z,96322.03
2017-06-28T07:17:30.329Z,96327.65
2017-06-28T07:19:57.775Z,96326.63
2017-06-28T07:22:25.238Z,96324.66
2017-06-28T07:24:52.682Z,96318.95
2017-06-28T07:27:20.112Z,96312.97
2017-06-28T07:29:47.556Z,96311.09
2017-06-28T07:32:14.969Z,96304.07
2017-06-28T07:34:42.556Z,96299.58
2017-06-28T07:37:09.991Z,96305.06
2017-06-28T07:39:37.483Z,96305.61
2017-06-28T07:42:04.955Z,96301.91
2017-06-28T07:44:32.392Z,96291.02
2017-06-28T07:46:59.829Z,96291.02
2017-06-28T07:49:27.230Z,96290.83
2017-06-28T07:51:54.687Z,96303.13
2017-06-28T07:54:22.112Z,96291.01
2017-06-28T07:56:49.606Z,96293.17
2017-06-28T07:59:17.071Z,96292.78
2017-06-28T08:01:44.583Z,96293.95
2017-06-28T08:04:12.019Z,96300.58
2017-06-28T08:06:39.466Z,96298.05
2017-06-28T08:09:06.956Z,96297.67
2017-06-28T08:11:34.380Z,96293.34
2017-06-28T08:14:01.832Z,96283.14
2017-06-28T08:16:29.276Z,96286.42
2017-06-28T08:18:56.758Z,96284.47
2017-06-28T08:21:24.179Z,96288.81
2017-06-28T08:23:51.608Z,96291.75
2017-06-28T08:26:19.063Z,96292.37
2017-06-28T08:28:46.517Z,96290.25
2017-06-28T08:31:14.964Z,96300.80
2017-06-28T08:33:42.395Z,96295.49
2017-06-28T08:36:09.811Z,96291.50
2017-06-28T08:38:37.228Z,96294.05
2017-06-28T08:41:04.791Z,96298.42
2017-06-28T08:43:32.225Z,96300.38
2017-06-28T08:45:59.644Z,96298.19
2017-06-28T08:48:27.064Z,96287.05
2017-06-28T08:50:54.517Z,96278.88
2017-06-28T08:53:21.932Z,96279.59
2017-06-28T08:55:49.348Z,96285.45
2017-06-28T08:58:16.771Z,96286.52
2017-06-28T09:00:44.184Z,96284.20
2017-06-28T09:03:11.619Z,96274.84
2017-06-28T09:05:39.037Z,96287.39
2017-06-28T09:08:06.699Z,96289.59
2017-06-28T09:10:34.155Z,96290.44
2017-06-28T09:13:01.591Z,96304.11
2017-06-28T09:15:29.023Z,96298.45
2017-06-28T09:17:56.446Z,96302.71
2017-06-28T09:20:23.941Z,96301.95
2017-06-28T09:22:51.401Z,96297.47
2017-06-28T09:25:18.845Z,96304.69
2017-06-28T09:27:46.289Z,96297.67
2017-06-28T09:30:13.729Z,96309.55
2017-06-28T09:32:41.146Z,96311.30
2017-06-28T09:35:08.545Z,96309.72
2017-06-28T09:37:36.029Z,96302.23
2017-06-28T09:40:03.443Z,96302.20
2017-06-28T09:42:30.972Z,96290.15
2017-06-28T09:44:58.423Z,96286.12
2017-06-28T09:47:25.890Z,96280.31
2017-06-28T09:49:53.319Z,96280.45
2017-06-28T09:52:20.738Z,96289.84
2017-06-28T09:54:48.171Z,96279.53
2017-06-28T09:57:15.611Z,96288.70
2017-06-28T09:59:43.007Z,96292.03
2017-06-28T10:02:11.091Z,96285.55
2017-06-28T10:04:38.544Z,96285.20
2017-06-28T10:07:05.990Z,96289.50
2017-06-28T10:09:33.410Z,96290.05
2017-06-28T10:12:00.849Z,96289.92
2017-06-28T10:14:28.255Z,96291.63
2017-06-28T10:16:55.716Z,96293.70
2017-06-28T10:19:23.233Z,96288.45
2017-06-28T10:21:50.655Z,96290.97
2017-06-28T10:24:18.186Z,96288.70
2017-06-28T10:26:45.579Z,96291.02
2017-06-28T10:29:13.536Z,96285.05
2017-06-28T10:31:41.007Z,96286.73
2017-06-28T10:34:08.422Z,96296.13
2017-06-28T10:36:35.855Z,96289.09
2017-06-28T10:39:03.286Z,96281.61
2017-06-28T10:41:30.698Z,96275.00
2017-06-28T10:43:58.124Z,96271.98
2017-06-28T10:46:25.543Z,96287.91
2017-06-28T10:48:53.001Z,96279.50
2017-06-28T10:51:20.415Z,96265.38
2017-06-28T10:53:47.859Z,96272.20
2017-06-28T10:56:15.293Z,96267.73
2017-06-28T10:58:42.717Z,96263.16
2017-06-28T11:01:10.158Z,96260.14
2017-06-28T11:03:37.590Z,96263.44
2017-06-28T11:06:05.012Z,96268.34
2017-06-28T11:08:32.457Z,96266.58
2017-06-28T11:10:59.928Z,96260.11
2017-06-28T11:13:27.357Z,96251.08
2017-06-28T11:15:54.783Z,96248.77
2017-06-28T11:18:22.227Z,96245.22
2017-06-28T11:20:49.674Z,96254.66
2017-06-28T11:23:17.140Z,96243.28
2017-06-28T11:25:44.544Z,96238.45
2017-06-28T11:28:12.070Z,96237.02
2017-06-28T11:30:39.497Z,96234.84
2017-06-28T11:33:06.905Z,96232.12
2017-06-28T11:35:34.410Z,96222.23
2017-06-28T11:38:01.967Z,96218.96
2017-06-28T11:40:29.416Z,96220.64
2017-06-28T11:42:56.848Z,96215.46
2017-06-28T11:45:24.279Z,96217.08
2017-06-28T11:47:51.687Z,96210.58
2017-06-28T11:50:19.144Z,96194.00
2017-06-28T11:52:46.565Z,96193.11
2017-06-28T11:55:13.974Z,96194.55
2017-06-28T11:57:41.456Z,96184.20
2017-06-28T12:00:08.856Z,96180.11
2017-06-28T12:02:36.271Z,96191.75
2017-06-28T12:05:03.766Z,96179.49
2017-06-28T12:07:31.231Z,96164.70
2017-06-28T12:09:58.771Z,96160.31
2017-06-28T12:12:26.287Z,96181.72
2017-06-28T12:14:53.743Z,96166.58
2017-06-28T12:17:21.166Z,96172.22
2017-06-28T12:19:48.585Z,96169.23
2017-06-28T12:22:16.051Z,96162.79
2017-06-28T12:24:43.483Z,96162.20
2017-06-28T12:27:10.951Z,96160.77
2017-06-28T12:29:38.452Z,96161.03
2017-06-28T12:32:05.911Z,96152.95
2017-06-28T12:34:33.353Z,96157.08
2017-06-28T12:37:00.779Z,96151.22
2017-06-28T12:39:28.229Z,96150.17
2017-06-28T12:41:55.687Z,96142.41
2017-06-28T12:44:23.148Z,96155.96
2017-06-28T12:46:50.583Z,96137.84
2017-06-28T12:49:18.069Z,96136.69
2017-06-28T12:51:45.512Z,96132.50
2017-06-28T12:54:12.924Z,96119.95
2017-06-28T12:56:40.386Z,96106.66
2017-06-28T12:59:07.852Z,96106.65
2017-06-28T13:01:35.362Z,96106.57
2017-06-28T13:04:02.762Z,96101.00
2017-06-28T13:06:30.163Z,96098.48
2017-06-28T13:08:57.660Z,96100.64
2017-06-28T13:11:25.127Z,96109.94
2017-06-28T13:13:52.574Z,96094.86
2017-06-28T13:16:19.987Z,96093.44
2017-06-28T13:18:47.428Z,96100.49
2017-06-28T13:21:14.932Z,96091.33
2017-06-28T13:23:42.355Z,96083.70
2017-06-28T13:26:09.800Z,96080.50
2017-06-28T13:28:37.209Z,96081.16
2017-06-28T13:31:04.604Z,96079.97
2017-06-28T13:33:32.040Z,96083.88
2017-06-28T13:35:59.463Z,96078.73
2017-06-28T13:38:26.968Z,96062.67
2017-06-28T13:40:54.425Z,96048.46
2017-06-28T13:43:21.974Z,96057.58
2017-06-28T13:45:49.377Z,96051.62
2017-06-28T13:48:16.799Z,96045.30
2017-06-28T13:50:44.290Z,96035.60
2017-06-28T13:53:11.687Z,96026.33
2017-06-28T13:55:39.164Z,96017.80
2017-06-28T13:58:06.574Z,96012.67
2017-06-28T14:00:34.003Z,96023.06
2017-06-28T14:03:01.520Z,96018.39
2017-06-28T14:05:28.978Z,96014.13
2017-06-28T14:07:56.380Z,96004.81
2017-06-28T14:10:23.843Z,95999.72
2017-06-28T14:12:51.299Z,95987.43
2017-06-28T14:15:18.722Z,95988.56
2017-06-28T14:17:46.166Z,95990.06
2017-06-28T14:20:13.642Z,95981.78
2017-06-28T14:22:41.052Z,95986.00
2017-06-28T14:25:08.539Z,95984.11
2017-06-28T14:27:35.946Z,95978.80
2017-06-28T14:30:03.411Z,95976.05
2017-06-28T14:32:30.866Z,95978.22
2017-06-28T14:34:58.280Z,95971.06
2017-06-28T14:37:25.716Z,95972.03
2017-06-28T14:39:53.221Z,95965.27
2017-06-28T14:42:20.683Z,95973.36
2017-06-28T14:44:48.181Z,95967.96
2017-06-28T14:47:15.648Z,95962.00
2017-06-28T14:49:43.163Z,95950.73
2017-06-28T14:52:10.572Z,95953.12
2017-06-28T14:54:38.010Z,95954.27
2017-06-28T14:57:05.716Z,95966.53
2017-06-28T14:59:33.511Z,95967.70
2017-06-28T15:02:00.928Z,95970.09
2017-06-28T15:04:28.354Z,95956.59
2017-06-28T15:06:55.796Z,95957.59
2017-06-28T15:09:23.240Z,95946.91
2017-06-28T15:11:50.648Z,95935.61
2017-06-28T15:14:18.077Z,95929.48
2017-06-28T15:16:45.566Z,95930.94
2017-06-28T15:19:12.963Z,95935.23
2017-06-28T15:21:40.424Z,95932.47
2017-06-28T15:24:07.868Z,95930.24
2017-06-28T15:26:35.502Z,95926.70
2017-06-28T15:29:02.916Z,95922.23
2017-06-28T15:31:30.373Z,95921.04
2017-06-28T15:33:57.864Z,95913.95
2017-06-28T15:36:26.193Z,95915.77
2017-06-28T15:38:53.639Z,95898.83
2017-06-28T15:41:21.051Z,95896.39
2017-06-28T15:43:48.448Z,95895.71
2017-06-28T15:46:15.912Z,95888.86
2017-06-28T15:48:43.421Z,95885.48
2017-06-28T15:51:10.877Z,95891.41
2017-06-28T15:53:49.894Z,95883.98
2017-06-28T15:56:37.928Z,95890.20
2017-06-28T15:59:05.375Z,95891.84
2017-06-28T16:01:32.789Z,95899.88
2017-06-28T16:04:00.371Z,95891.47
2017-06-28T16:06:27.835Z,95883.57
2017-06-28T16:08:55.280Z,95884.84
2017-06-28T16:11:22.715Z,95886.19
2017-06-28T16:13:50.135Z,95882.61
2017-06-28T16:16:17.587Z,95881.48
2017-06-28T16:18:44.996Z,95881.80
2017-06-28T16:21:12.428Z,95872.75
2017-06-28T16:23:39.924Z,95879.73
2017-06-28T16:26:07.327Z,95879.93
2017-06-28T16:28:34.781Z,95880.19
2017-06-28T16:31:02.188Z,95882.31
2017-06-28T16:33:29.613Z,95872.75
2017-06-28T16:35:57.058Z,95869.27
2017-06-28T16:38:24.552Z,95863.98
2017-06-28T16:40:52.048Z,95861.25
2017-06-28T16:43:19.496Z,95852.52
2017-06-28T16:45:46.985Z,95859.20
2017-06-28T16:48:14.481Z,95851.66
2017-06-28T16:50:41.968Z,95843.45
2017-06-28T16:53:09.455Z,95842.73
2017-06-28T16:55:36.894Z,95841.42
2017-06-28T16:58:04.405Z,95838.27
2017-06-28T17:00:31.833Z,95829.38
2017-06-28T17:02:59.335Z,95825.23
2017-06-28T17:05:26.829Z,95826.86
2017-06-28T17:07:54.248Z,95823.63
2017-06-28T17:10:21.705Z,95822.15
2017-06-28T17:12:49.150Z,95818.51
2017-06-28T17:15:16.581Z,95828.80
2017-06-28T17:17:44.063Z,95826.48
2017-06-28T17:20:11.568Z,95821.70
2017-06-28T17:22:39.130Z,95830.42
2017-06-28T17:25:06.534Z,95828.98
2017-06-28T17:27:34.047Z,95830.89
2017-06-28T17:30:01.712Z,95826.67
2017-06-28T17:32:29.189Z,95828.73
2017-06-28T17:34:56.593Z,95828.71
2017-06-28T17:37:24.067Z,95820.08
2017-06-28T17:39:51.575Z,95825.43
2017-06-28T17:42:18.994Z,95819.23
2017-06-28T17:44:46.463Z,95816.03
2017-06-28T17:47:14.766Z,95805.62
2017-06-28T17:49:42.167Z,95804.57
2017-06-28T17:52:09.591Z,95808.58
2017-06-28T17:54:37.069Z,95796.32
2017-06-28T17:57:04.477Z,95802.48
2017-06-28T17:59:31.944Z,95805.14
2017-06-28T18:01:59.412Z,95805.06
2017-06-28T18:04:26.830Z,95801.87
2017-06-28T18:06:54.296Z,95795.11
2017-06-28T18:09:21.750Z,95793.84
2017-06-28T18:11:49.155Z,95783.17
2017-06-28T18:14:16.834Z,95778.11
2017-06-28T18:16:44.288Z,95778.66
2017-06-28T18:19:11.772Z,95778.03
2017-06-28T18:21:39.227Z,95783.66
2017-06-28T18:24:06.695Z,95788.84
2017-06-28T18:26:34.212Z,95792.42
2017-06-28T18:29:01.619Z,95796.70
2017-06-28T18:31:29.175Z,95800.56
2017-06-28T18:33:56.619Z,95795.39
2017-06-28T18:36:24.047Z,95805.11
2017-06-28T18:38:51.650Z,95805.45
2017-06-28T18:41:19.165Z,95803.99
2017-06-28T18:43:46.618Z,95808.77
2017-06-28T18:46:14.093Z,95809.41
2017-06-28T18:48:41.572Z,95809.05
2017-06-28T18:51:09.047Z,95801.39
2017-06-28T18:53:36.453Z,95808.50
2017-06-28T18:56:03.905Z,95813.15
2017-06-28T18:58:31.326Z,95814.48
2017-06-28T19:00:58.780Z,95815.09
2017-06-28T19:03:26.264Z,95822.28
2017-06-28T19:05:53.725Z,95832.81
2017-06-28T19:08:21.160Z,95842.02
2017-06-28T19:10:48.600Z,95836.73
2017-06-28T19:13:16.056Z,95846.84
2017-06-28T19:15:43.488Z,95849.47
2017-06-28T19:18:11.041Z,95860.69
2017-06-28T19:20:38.587Z,95864.33
2017-06-28T19:23:06.169Z,95885.52
2017-06-28T19:25:33.585Z,95896.47
2017-06-28T19:28:01.024Z,95901.86
2017-06-28T19:30:28.501Z,95903.95
2017-06-28T19:32:55.916Z,95909.36
2017-06-28T19:35:23.343Z,95908.27
2017-06-28T19:37:50.788Z,95904.11
2017-06-28T19:40:18.259Z,95897.38
2017-06-28T19:42:45.808Z,95893.27
2017-06-28T19:45:13.244Z,95895.43
2017-06-28T19:47:40.699Z,95894.45
2017-06-28T19:50:08.225Z,95893.80
2017-06-28T19:52:35.643Z,95901.09
2017-06-28T19:55:03.081Z,95900.09
2017-06-28T19:57:30.513Z,95899.42
2017-06-28T19:59:58.002Z,95890.11
2017-06-28T20:02:25.527Z,95884.15
2017-06-28T20:04:53.588Z,95883.96
2017-06-28T20:07:21.057Z,95888.56
2017-06-28T20:09:48.534Z,95893.06
2017-06-28T20:12:16.013Z,95896.86
2017-06-28T20:14:43.718Z,95889.91
2017-06-28T20:17:11.164Z,95888.42
2017-06-28T20:19:38.615Z,95894.34
2017-06-28T20:22:06.628Z,95908.66
2017-06-28T20:24:34.057Z,95913.36
2017-06-28T20:27:01.500Z,95908.05
2017-06-28T20:29:28.936Z,95908.53
2017-06-28T20:31:56.386Z,95914.23
2017-06-28T20:34:23.851Z,95917.02
2017-06-28T20:36:51.265Z,95925.32
2017-06-28T20:39:18.708Z,95918.77
2017-06-28T20:41:46.164Z,95918.05
2017-06-28T20:44:13.665Z,95918.70
2017-06-28T20:46:41.088Z,95906.06
2017-06-28T20:49:08.500Z,95907.48
2017-06-28T20:51:35.924Z,95906.63
2017-06-28T20:54:03.375Z,95914.28
2017-06-28T20:56:30.838Z,95910.73
2017-06-28T20:58:58.281Z,95909.11
2017-06-28T21:01:25.756Z,95909.60
2017-06-28T21:03:53.177Z,95910.75
2017-06-28T21:06:20.636Z,95903.73
2017-06-28T21:08:48.088Z,95899.64
2017-06-28T21:11:15.496Z,95898.02
2017-06-28T21:13:42.946Z,95903.88
2017-06-28T21:16:10.400Z,95900.75
2017-06-28T21:18:37.821Z,95909.38
2017-06-28T21:21:05.248Z,95909.89
2017-06-28T21:23:32.669Z,95914.80
2017-06-28T21:26:00.109Z,95921.13
2017-06-28T21:28:27.532Z,95919.25
2017-06-28T21:30:54.990Z,95928.44
2017-06-28T21:33:22.407Z,95920.03
2017-06-28T21:35:49.860Z,95920.83
2017-06-28T21:38:17.295Z,95912.42
2017-06-28T21:40:44.747Z,95920.05
2017-06-28T21:43:12.212Z,95921.05
2017-06-28T21:45:39.662Z,95912.67
2017-06-28T21:48:07.070Z,95913.79
2017-06-28T21:50:34.717Z,95908.91
2017-06-28T21:53:02.309Z,95906.77
2017-06-28T21:55:29.731Z,95909.56
2017-06-28T21:57:57.123Z,95917.17
2017-06-28T22:00:24.597Z,95918.23
2017-06-28T22:02:52.083Z,95915.91
2017-06-28T22:05:19.610Z,95918.25
2017-06-28T22:07:47.175Z,95922.81
2017-06-28T22:10:14.868Z,95916.92
2017-06-28T22:12:42.280Z,95914.78
2017-06-28T22:15:09.690Z,95918.50
2017-06-28T22:17:38.072Z,95919.43
2017-06-28T22:20:05.480Z,95916.53
2017-06-28T22:22:32.891Z,95918.70
2017-06-28T22:25:00.357Z,95923.09
2017-06-28T22:27:27.770Z,95921.28
2017-06-28T22:29:55.187Z,95927.69
2017-06-28T22:32:22.695Z,95927.08
2017-06-28T22:34:50.123Z,95925.36
2017-06-28T22:37:17.561Z,95922.59
2017-06-28T22:39:44.992Z,95922.02
2017-06-28T22:42:12.384Z,95919.89
2017-06-28T22:44:39.835Z,95914.27
2017-06-28T22:47:07.267Z,95906.66
2017-06-28T22:49:34.699Z,95909.55
2017-06-28T22:52:02.131Z,95907.00
2017-06-28T22:54:29.583Z,95909.70
2017-06-28T22:56:57.021Z,95909.53
2017-06-28T22:59:24.434Z,95904.83
2017-06-28T23:01:51.875Z,95912.52
2017-06-28T23:04:19.341Z,95911.23
2017-06-28T23:06:46.920Z,95910.94
2017-06-28T23:09:14.351Z,95912.27
2017-06-28T23:11:41.821Z,95909.48
2017-06-28T23:14:09.271Z,95903.42
2017-06-28T23:16:36.687Z,95909.16
2017-06-28T23:19:04.132Z,95908.55
2017-06-28T23:21:31.563Z,95912.94
2017-06-28T23:23:58.992Z,95922.35
2017-06-28T23:26:26.425Z,95921.02
2017-06-28T23:28:53.846Z,95920.70
2017-06-28T23:31:21.300Z,95919.95
2017-06-28T23:33:48.735Z,95922.65
2017-06-28T23:36:16.156Z,95912.02
2017-06-28T23:38:43.592Z,95919.47
2017-06-28T23:41:11.043Z,95917.18
2017-06-28T23:43:38.475Z,95926.64
2017-06-28T23:46:05.891Z,95923.73
2017-06-28T23:48:37.188Z,95927.37
2017-06-28T23:51:04.627Z,95922.53
2017-06-28T23:53:32.074Z,95926.99
2017-06-28T23:55:59.544Z,95927.67
2017-06-28T23:58:27.008Z,95929.39
